Time;durP1;ratioP1;P1;durP2;ratioP2;P2;SDS_P1;SDS_P2;PMS_P1;PMS_P2;Temp;Humidity;BMP_temperature;BMP_pressure;BME280_temperature;BME280_humidity;BME280_pressure;Samples;Min_cycle;Max_cycle;Signal;HPM_P1;HPM_P2
2021/10/31 00:01:28;;;;;;;14.65;9.95;;;7.50;99.90;;;;;;5046761;28;20036;-68
2021/10/31 00:03:55;;;;;;;13.32;9.48;;;7.50;99.90;;;;;;5055040;28;20033;-68
2021/10/31 00:06:20;;;;;;;17.13;10.02;;;7.50;99.90;;;;;;5046682;28;20033;-69
2021/10/31 00:08:47;;;;;;;16.20;9.50;;;7.50;99.90;;;;;;5049805;28;20519;-69
2021/10/31 00:11:13;;;;;;;16.23;10.38;;;7.50;99.90;;;;;;5046901;28;20025;-69
2021/10/31 00:13:39;;;;;;;19.10;10.55;;;7.50;99.90;;;;;;5030703;28;20037;-69
2021/10/31 00:16:05;;;;;;;18.13;9.73;;;7.40;99.90;;;;;;5045108;28;20087;-68
2021/10/31 00:18:30;;;;;;;13.45;9.32;;;7.40;99.90;;;;;;5045639;28;20114;-68
2021/10/31 00:20:56;;;;;;;14.90;9.63;;;7.40;99.90;;;;;;5036204;28;20400;-68
2021/10/31 00:23:25;;;;;;;14.68;9.77;;;7.40;99.90;;;;;;5054311;28;20971;-69
2021/10/31 00:25:51;;;;;;;15.35;9.90;;;7.50;99.90;;;;;;5040159;28;20024;-68
2021/10/31 00:28:18;;;;;;;16.45;10.35;;;7.40;99.90;;;;;;5037624;28;20033;-69
2021/10/31 00:30:44;;;;;;;17.48;10.57;;;7.40;99.90;;;;;;5039547;28;20520;-68
2021/10/31 00:33:09;;;;;;;15.57;9.77;;;7.40;99.90;;;;;;5052220;28;20025;-69
2021/10/31 00:35:36;;;;;;;14.70;10.60;;;7.40;99.90;;;;;;5052270;28;20029;-69
2021/10/31 00:38:02;;;;;;;19.83;11.25;;;7.50;99.90;;;;;;5048137;28;20039;-69
2021/10/31 00:40:28;;;;;;;14.45;10.13;;;7.40;99.90;;;;;;5053138;28;20037;-68
2021/10/31 00:42:54;;;;;;;17.83;11.35;;;7.40;99.90;;;;;;5043561;28;20040;-68
2021/10/31 00:45:19;;;;;;;15.55;11.02;;;7.40;99.90;;;;;;5043762;28;20025;-69
2021/10/31 00:47:45;;;;;;;15.80;9.80;;;7.40;99.90;;;;;;5042666;28;20479;-69
2021/10/31 00:50:11;;;;;;;15.40;10.07;;;7.40;99.90;;;;;;5051257;28;20033;-69
2021/10/31 00:52:37;;;;;;;15.82;10.70;;;7.50;99.90;;;;;;5048282;28;20083;-69
2021/10/31 00:55:04;;;;;;;12.40;9.27;;;7.50;99.90;;;;;;5053287;28;20107;-69
2021/10/31 00:57:31;;;;;;;13.02;9.98;;;7.40;99.90;;;;;;5044680;28;20122;-68
2021/10/31 00:59:58;;;;;;;14.13;9.80;;;7.50;99.90;;;;;;5043734;28;20014;-68
2021/10/31 01:02:24;;;;;;;14.73;9.68;;;7.50;99.90;;;;;;5046741;28;20124;-69
2021/10/31 01:04:54;;;;;;;12.18;9.02;;;7.60;99.90;;;;;;5046484;28;20120;-69
2021/10/31 01:07:26;;;;;;;13.77;9.02;;;7.60;99.90;;;;;;5042314;28;20104;-69
2021/10/31 01:10:20;;;;;;;16.90;8.98;;;7.60;99.90;;;;;;5048086;28;20041;-69
2021/10/31 01:13:08;;;;;;;13.65;9.27;;;7.60;99.90;;;;;;5043688;28;20020;-68
2021/10/31 01:15:55;;;;;;;12.68;9.30;;;7.60;99.90;;;;;;5038341;28;20029;-69
2021/10/31 01:18:31;;;;;;;12.00;8.38;;;7.60;99.90;;;;;;5020496;28;21430;-69
2021/10/31 01:21:12;;;;;;;14.85;9.23;;;7.60;99.90;;;;;;5039580;28;20025;-68
2021/10/31 01:24:09;;;;;;;16.38;9.15;;;7.60;99.90;;;;;;5045760;28;20125;-69
2021/10/31 01:26:56;;;;;;;11.35;8.20;;;7.60;99.90;;;;;;5047925;28;20025;-69
2021/10/31 01:29:28;;;;;;;10.73;8.53;;;7.60;99.90;;;;;;5044540;28;20107;-68
2021/10/31 01:32:16;;;;;;;12.00;8.50;;;7.60;99.90;;;;;;5049719;28;20291;-68
2021/10/31 01:35:21;;;;;;;11.93;8.45;;;7.70;99.90;;;;;;5051575;28;20112;-68
2021/10/31 01:38:14;;;;;;;14.45;9.10;;;7.70;99.90;;;;;;5008826;28;20041;-69
2021/10/31 01:40:45;;;;;;;13.70;9.05;;;7.60;99.90;;;;;;5035708;28;20017;-72
2021/10/31 01:43:50;;;;;;;13.30;8.95;;;7.60;99.90;;;;;;5042630;28;20025;-69
2021/10/31 01:46:40;;;;;;;11.82;8.02;;;7.60;99.90;;;;;;5045218;28;20041;-69
2021/10/31 01:49:40;;;;;;;12.15;8.32;;;7.60;99.90;;;;;;5037644;28;20420;-69
2021/10/31 01:52:13;;;;;;;14.07;8.50;;;7.60;99.90;;;;;;5036981;28;20056;-68
2021/10/31 01:54:55;;;;;;;12.65;9.30;;;7.60;99.90;;;;;;5039347;28;20048;-68
2021/10/31 01:57:23;;;;;;;12.20;8.30;;;7.50;99.90;;;;;;5044172;28;20520;-68
2021/10/31 01:59:57;;;;;;;12.40;8.07;;;7.50;99.90;;;;;;5047666;28;20392;-68
2021/10/31 02:02:27;;;;;;;10.88;7.43;;;7.60;99.90;;;;;;5035401;28;20044;-67
2021/10/31 02:04:55;;;;;;;11.73;7.75;;;7.60;99.90;;;;;;5050991;28;20021;-67
2021/10/31 02:07:21;;;;;;;12.57;7.50;;;7.60;99.90;;;;;;5055589;28;20033;-67
2021/10/31 02:09:49;;;;;;;12.35;8.02;;;7.60;99.90;;;;;;5032080;28;20091;-68
2021/10/31 02:12:18;;;;;;;12.82;7.95;;;7.60;99.90;;;;;;5046843;28;20915;-68
2021/10/31 02:14:46;;;;;;;10.07;7.47;;;7.60;99.90;;;;;;5050342;28;20034;-67
2021/10/31 02:17:16;;;;;;;11.75;7.60;;;7.60;99.90;;;;;;5047645;28;20033;-67
2021/10/31 02:19:44;;;;;;;13.65;7.53;;;7.60;99.90;;;;;;5038291;28;20040;-68
2021/10/31 02:22:27;;;;;;;11.32;7.20;;;7.60;99.90;;;;;;5048700;28;20021;-68
2021/10/31 02:24:53;;;;;;;9.27;6.90;;;7.50;99.90;;;;;;5047389;28;20539;-67
2021/10/31 02:27:21;;;;;;;12.65;8.13;;;7.60;99.90;;;;;;5048871;28;20031;-67
2021/10/31 02:30:05;;;;;;;12.30;7.82;;;7.60;99.90;;;;;;5041117;28;20033;-67
2021/10/31 02:32:32;;;;;;;11.10;7.22;;;7.60;99.90;;;;;;5044851;28;20040;-68
2021/10/31 02:34:58;;;;;;;8.93;7.45;;;7.60;99.90;;;;;;5040718;28;20454;-67
2021/10/31 02:37:25;;;;;;;11.63;7.82;;;7.50;99.90;;;;;;5040038;28;20036;-67
2021/10/31 02:39:52;;;;;;;10.15;7.68;;;7.50;99.90;;;;;;5050158;28;20067;-67
2021/10/31 02:42:18;;;;;;;11.93;8.00;;;7.50;99.90;;;;;;5041728;28;20082;-67
2021/10/31 02:44:44;;;;;;;10.82;7.45;;;7.30;99.90;;;;;;5041212;28;20072;-67
2021/10/31 02:47:17;;;;;;;15.23;8.05;;;7.40;99.90;;;;;;5038919;28;20033;-67
2021/10/31 02:49:44;;;;;;;7.80;6.85;;;7.30;99.90;;;;;;5042056;28;20029;-67
2021/10/31 02:52:27;;;;;;;9.43;6.70;;;7.30;99.90;;;;;;5047056;28;20497;-67
2021/10/31 02:55:08;;;;;;;163.18;13.70;;;7.30;99.90;;;;;;5044201;28;20021;-67
2021/10/31 02:57:42;;;;;;;17.15;7.57;;;7.30;99.90;;;;;;5044170;28;20086;-68
2021/10/31 03:00:12;;;;;;;9.00;6.82;;;7.30;99.90;;;;;;5043823;28;20036;-67
2021/10/31 03:02:37;;;;;;;9.93;7.00;;;7.20;99.90;;;;;;5046666;28;20493;-67
2021/10/31 03:05:03;;;;;;;15.02;8.23;;;7.20;99.90;;;;;;5038064;28;20027;-67
2021/10/31 03:07:30;;;;;;;9.55;7.68;;;7.20;99.90;;;;;;5032664;28;20021;-67
2021/10/31 03:09:55;;;;;;;10.02;7.50;;;7.10;99.90;;;;;;5043361;28;20035;-67
2021/10/31 03:12:21;;;;;;;11.07;7.18;;;7.10;99.90;;;;;;5036422;28;20033;-68
2021/10/31 03:14:47;;;;;;;8.73;6.35;;;7.10;99.90;;;;;;5042753;28;20371;-67
2021/10/31 03:17:13;;;;;;;7.57;6.00;;;7.00;99.90;;;;;;5035336;28;20029;-67
2021/10/31 03:19:39;;;;;;;8.02;6.20;;;6.80;99.90;;;;;;5035193;28;20039;-68
2021/10/31 03:22:06;;;;;;;8.95;6.10;;;6.90;99.90;;;;;;5035856;28;20020;-68
2021/10/31 03:24:33;;;;;;;10.18;5.88;;;6.80;99.90;;;;;;5043331;28;20177;-68
2021/10/31 03:26:58;;;;;;;136.48;12.20;;;6.70;99.90;;;;;;5036270;28;20389;-68
2021/10/31 03:29:25;;;;;;;83.30;10.55;;;6.50;99.90;;;;;;5034752;28;20043;-68
2021/10/31 03:31:53;;;;;;;17.80;5.90;;;6.40;99.90;;;;;;5040779;28;20215;-67
2021/10/31 03:34:19;;;;;;;;;;;6.40;99.90;;;;;;5040805;28;20033;-68
2021/10/31 03:36:46;;;;;;;9.70;5.78;;;6.40;99.90;;;;;;5036638;28;19979;-67
2021/10/31 03:39:13;;;;;;;5.72;5.20;;;6.40;99.90;;;;;;5040281;28;20044;-67
2021/10/31 03:41:39;;;;;;;7.05;4.32;;;6.40;99.90;;;;;;5039407;28;20081;-67
2021/10/31 03:44:05;;;;;;;16.55;10.70;;;6.40;99.90;;;;;;5040118;28;20025;-67
2021/10/31 03:46:31;;;;;;;32.33;14.23;;;6.30;99.90;;;;;;5037893;28;20051;-68
2021/10/31 03:48:57;;;;;;;21.70;10.05;;;6.30;99.90;;;;;;5040649;28;20052;-67
2021/10/31 03:51:22;;;;;;;37.88;8.00;;;6.20;99.90;;;;;;5035310;28;20037;-68
2021/10/31 03:53:48;;;;;;;20.75;6.28;;;6.10;99.90;;;;;;5032078;28;20024;-68
2021/10/31 03:56:14;;;;;;;13.50;7.95;;;6.10;99.90;;;;;;5038743;28;20681;-68
2021/10/31 03:58:39;;;;;;;32.33;6.40;;;6.10;99.90;;;;;;5036416;28;20049;-68
2021/10/31 04:01:05;;;;;;;20.10;4.95;;;5.90;99.90;;;;;;5037552;28;20117;-68
2021/10/31 04:03:31;;;;;;;12.05;7.22;;;5.90;99.90;;;;;;5034523;28;20029;-68
2021/10/31 04:05:56;;;;;;;19.27;7.50;;;5.90;99.90;;;;;;5037428;28;20087;-68
2021/10/31 04:08:23;;;;;;;10.43;9.05;;;6.00;99.90;;;;;;5037757;28;20477;-68
2021/10/31 04:10:49;;;;;;;6.68;5.22;;;6.00;99.90;;;;;;5037630;28;20036;-67
2021/10/31 04:13:14;;;;;;;7.55;5.05;;;6.00;99.90;;;;;;5038382;28;20072;-68
2021/10/31 04:15:43;;;;;;;17.30;11.00;;;6.10;99.90;;;;;;5037048;28;20750;-68
2021/10/31 04:18:12;;;;;;;9.77;6.88;;;6.10;99.90;;;;;;5037632;28;20095;-68
2021/10/31 04:20:37;;;;;;;;;;;6.10;99.90;;;;;;5040136;28;20033;-68
2021/10/31 04:23:03;;;;;;;4.70;4.30;;;6.00;99.90;;;;;;5039231;28;19917;-68
2021/10/31 04:25:29;;;;;;;5.80;4.10;;;6.00;99.90;;;;;;5036505;28;21067;-68
2021/10/31 04:27:55;;;;;;;5.45;4.57;;;6.00;99.90;;;;;;5041031;28;20040;-68
2021/10/31 04:30:20;;;;;;;24.42;5.13;;;5.70;99.90;;;;;;5035530;28;20109;-68
2021/10/31 04:32:46;;;;;;;4.53;4.10;;;5.60;99.90;;;;;;5037105;28;20088;-68
2021/10/31 04:35:12;;;;;;;4.10;3.70;;;5.50;99.90;;;;;;5049542;28;20037;-67
2021/10/31 04:37:41;;;;;;;4.07;3.78;;;5.40;99.90;;;;;;5035925;28;20096;-67
2021/10/31 04:40:10;;;;;;;4.80;4.00;;;5.40;99.90;;;;;;5034443;28;20029;-68
2021/10/31 04:42:37;;;;;;;5.82;3.97;;;5.40;99.90;;;;;;5034299;28;20035;-68
2021/10/31 04:45:03;;;;;;;5.35;4.25;;;5.30;99.90;;;;;;5038394;28;20590;-68
2021/10/31 04:47:29;;;;;;;4.93;4.35;;;5.40;99.90;;;;;;5031033;28;20033;-68
2021/10/31 04:49:54;;;;;;;25.35;5.82;;;5.40;99.90;;;;;;5041298;28;20084;-68
2021/10/31 04:52:20;;;;;;;20.10;6.10;;;5.50;99.90;;;;;;5041630;28;20032;-68
2021/10/31 04:54:46;;;;;;;31.40;5.78;;;5.50;99.90;;;;;;5033646;28;20032;-67
2021/10/31 04:57:11;;;;;;;39.08;6.22;;;5.50;99.90;;;;;;5046992;28;20043;-68
2021/10/31 04:59:37;;;;;;;132.82;9.90;;;5.50;99.90;;;;;;5045068;28;20501;-68
2021/10/31 05:02:03;;;;;;;8.05;5.10;;;5.40;99.90;;;;;;5038705;28;20670;-68
2021/10/31 05:04:28;;;;;;;5.45;4.93;;;5.30;99.90;;;;;;5039427;28;20065;-67
2021/10/31 05:06:54;;;;;;;5.97;4.80;;;5.30;99.90;;;;;;5042606;28;20022;-67
2021/10/31 05:09:20;;;;;;;5.90;4.32;;;5.40;99.90;;;;;;5042617;28;20047;-68
2021/10/31 05:11:45;;;;;;;5.47;4.90;;;5.40;99.90;;;;;;5037169;28;20029;-68
2021/10/31 05:14:11;;;;;;;5.43;4.15;;;5.30;99.90;;;;;;5040820;28;20025;-68
2021/10/31 05:16:37;;;;;;;24.23;4.88;;;5.40;99.90;;;;;;5040109;28;20128;-68
2021/10/31 05:19:08;;;;;;;4.15;3.80;;;5.30;99.90;;;;;;5043064;28;20059;-68
2021/10/31 05:21:33;;;;;;;48.83;6.03;;;5.20;99.90;;;;;;5038418;28;20021;-68
2021/10/31 05:23:59;;;;;;;19.40;5.25;;;5.10;99.90;;;;;;5039321;28;20555;-68
2021/10/31 05:26:25;;;;;;;5.78;4.25;;;5.00;99.90;;;;;;5039212;28;20029;-68
2021/10/31 05:28:51;;;;;;;4.60;3.45;;;5.10;99.90;;;;;;5042474;28;20201;-68
2021/10/31 05:31:17;;;;;;;4.32;3.88;;;5.00;99.90;;;;;;5040758;28;20497;-69
2021/10/31 05:33:44;;;;;;;10.48;4.22;;;5.00;99.90;;;;;;5040236;28;20040;-67
2021/10/31 05:36:10;;;;;;;5.15;4.03;;;5.00;99.90;;;;;;5039170;28;20033;-68
2021/10/31 05:38:35;;;;;;;5.78;3.72;;;5.00;99.90;;;;;;5041806;28;20036;-67
2021/10/31 05:41:03;;;;;;;10.32;4.78;;;4.90;99.90;;;;;;5040047;28;20025;-68
2021/10/31 05:43:29;;;;;;;7.85;4.88;;;4.80;99.90;;;;;;5030121;28;20026;-68
2021/10/31 05:45:58;;;;;;;6.97;5.80;;;4.90;99.90;;;;;;5041506;28;20040;-67
2021/10/31 05:48:25;;;;;;;5.30;4.80;;;5.00;99.90;;;;;;5039046;28;20035;-68
2021/10/31 05:50:55;;;;;;;8.32;5.47;;;5.00;99.90;;;;;;5039104;28;20869;-68
2021/10/31 05:53:22;;;;;;;26.65;7.07;;;5.00;99.90;;;;;;5041285;28;20067;-67
2021/10/31 05:55:48;;;;;;;8.43;6.22;;;5.00;99.90;;;;;;5039690;28;20071;-67
2021/10/31 05:58:13;;;;;;;42.33;22.27;;;4.70;99.90;;;;;;5043985;28;20458;-67
2021/10/31 06:00:39;;;;;;;80.72;39.70;;;4.70;99.90;;;;;;5037617;28;20040;-68
2021/10/31 06:03:05;;;;;;;46.67;24.10;;;4.80;99.90;;;;;;5043928;28;20362;-68
2021/10/31 06:05:31;;;;;;;24.13;13.52;;;4.80;99.90;;;;;;5045797;28;20025;-67
2021/10/31 06:07:57;;;;;;;20.17;8.10;;;4.80;99.90;;;;;;5042538;28;20500;-68
2021/10/31 06:10:23;;;;;;;8.93;4.65;;;4.80;99.90;;;;;;5046305;28;20041;-68
2021/10/31 06:12:49;;;;;;;6.90;4.88;;;4.80;99.90;;;;;;5043994;28;20057;-68
2021/10/31 06:15:18;;;;;;;53.53;6.82;;;4.70;99.90;;;;;;5042302;28;20064;-67
2021/10/31 06:17:44;;;;;;;32.13;7.15;;;4.60;99.90;;;;;;5044010;28;20414;-68
2021/10/31 06:20:12;;;;;;;25.38;5.78;;;4.60;99.90;;;;;;5040218;28;20018;-67
2021/10/31 06:22:38;;;;;;;37.88;6.65;;;4.50;99.90;;;;;;5043543;28;20029;-68
2021/10/31 06:25:05;;;;;;;15.18;6.55;;;4.50;99.90;;;;;;5041843;28;20098;-68
2021/10/31 06:27:31;;;;;;;5.78;4.18;;;4.50;99.90;;;;;;5042704;28;20388;-67
2021/10/31 06:29:57;;;;;;;6.32;4.55;;;4.40;99.90;;;;;;5038792;28;20022;-67
2021/10/31 06:32:23;;;;;;;10.52;4.60;;;4.50;99.90;;;;;;5038424;28;20595;-68
2021/10/31 06:34:48;;;;;;;8.20;4.65;;;4.50;99.90;;;;;;5041353;28;20381;-67
2021/10/31 06:37:14;;;;;;;7.28;4.53;;;4.50;99.90;;;;;;5041164;28;20025;-68
2021/10/31 06:39:40;;;;;;;6.05;4.70;;;4.50;99.90;;;;;;5039929;28;20051;-67
2021/10/31 06:42:06;;;;;;;6.35;4.95;;;4.50;99.90;;;;;;5043195;28;20509;-68
2021/10/31 06:44:31;;;;;;;7.28;6.22;;;4.60;99.90;;;;;;5040076;28;20596;-67
2021/10/31 06:46:57;;;;;;;6.15;5.55;;;4.60;99.90;;;;;;5042597;28;20151;-67
2021/10/31 06:49:23;;;;;;;5.10;4.38;;;4.60;99.90;;;;;;5040682;28;20025;-68
2021/10/31 06:51:48;;;;;;;5.43;4.82;;;4.60;99.90;;;;;;5035257;28;20061;-68
2021/10/31 06:54:15;;;;;;;5.18;4.68;;;4.70;99.90;;;;;;5031081;28;20432;-67
2021/10/31 06:56:41;;;;;;;4.55;4.03;;;4.60;99.90;;;;;;5039944;28;20029;-67
2021/10/31 06:59:07;;;;;;;4.15;3.80;;;4.70;99.90;;;;;;5040996;28;20029;-67
2021/10/31 07:01:33;;;;;;;4.28;3.72;;;4.70;99.90;;;;;;5040487;28;20025;-67
2021/10/31 07:03:58;;;;;;;3.85;3.47;;;4.80;99.90;;;;;;5041367;28;20087;-67
2021/10/31 07:06:24;;;;;;;4.97;4.53;;;4.80;99.90;;;;;;5040086;28;20029;-68
2021/10/31 07:08:50;;;;;;;4.85;4.18;;;4.80;99.90;;;;;;5044105;28;20090;-68
2021/10/31 07:11:15;;;;;;;4.43;4.00;;;4.80;99.90;;;;;;5039352;28;20029;-68
2021/10/31 07:13:41;;;;;;;7.50;4.30;;;4.90;99.90;;;;;;5038966;28;20952;-68
2021/10/31 07:16:07;;;;;;;5.07;4.30;;;4.90;99.90;;;;;;5044992;28;20029;-68
2021/10/31 07:18:33;;;;;;;6.78;4.97;;;4.90;99.90;;;;;;5037281;28;20072;-67
2021/10/31 07:21:00;;;;;;;4.95;4.45;;;5.00;99.90;;;;;;5039849;28;20045;-67
2021/10/31 07:23:25;;;;;;;4.38;3.97;;;5.00;99.90;;;;;;5035466;28;20128;-68
2021/10/31 07:25:52;;;;;;;5.88;4.20;;;5.00;99.90;;;;;;5036066;28;20039;-67
2021/10/31 07:28:18;;;;;;;5.68;5.07;;;5.10;99.90;;;;;;5034312;28;20021;-68
2021/10/31 07:30:44;;;;;;;7.38;4.65;;;5.20;99.90;;;;;;5041340;28;20074;-67
2021/10/31 07:33:09;;;;;;;5.80;4.97;;;5.20;99.90;;;;;;5061552;28;20514;-68
2021/10/31 07:35:35;;;;;;;7.43;5.53;;;5.30;99.90;;;;;;5067442;28;20070;-68
2021/10/31 07:38:02;;;;;;;7.00;5.82;;;5.40;99.90;;;;;;5064355;28;20033;-68
2021/10/31 07:40:28;;;;;;;7.38;5.97;;;5.50;99.90;;;;;;5066660;28;20499;-67
2021/10/31 07:42:54;;;;;;;8.52;5.65;;;5.50;99.90;;;;;;5063382;28;20028;-68
2021/10/31 07:45:19;;;;;;;9.25;6.63;;;5.60;99.90;;;;;;5065317;28;20017;-67
2021/10/31 07:47:45;;;;;;;8.23;6.47;;;5.70;99.90;;;;;;5066887;28;20025;-68
2021/10/31 07:50:11;;;;;;;9.18;7.65;;;5.70;99.90;;;;;;5054955;28;20079;-68
2021/10/31 07:52:45;;;;;;;7.25;6.40;;;5.80;99.90;;;;;;5053071;28;20043;-67
2021/10/31 07:55:15;;;;;;;7.32;6.20;;;5.90;99.90;;;;;;5054186;28;20153;-68
2021/10/31 07:57:42;;;;;;;7.35;6.28;;;6.00;99.90;;;;;;5060747;28;20021;-67
2021/10/31 08:00:08;;;;;;;7.30;6.50;;;6.10;99.90;;;;;;5065232;28;20021;-68
2021/10/31 08:02:34;;;;;;;7.13;5.90;;;6.30;99.90;;;;;;5063443;28;20039;-68
2021/10/31 08:05:00;;;;;;;8.40;6.05;;;6.30;99.90;;;;;;5064169;28;20025;-68
2021/10/31 08:07:30;;;;;;;9.15;5.63;;;6.40;99.90;;;;;;5059507;28;20173;-68
2021/10/31 08:09:58;;;;;;;9.02;6.25;;;6.50;99.90;;;;;;5065742;28;20027;-68
2021/10/31 08:12:25;;;;;;;9.25;6.70;;;6.60;99.90;;;;;;5064964;28;20097;-68
2021/10/31 08:14:51;;;;;;;10.32;6.25;;;6.80;99.90;;;;;;5062418;28;20490;-68
2021/10/31 08:17:17;;;;;;;11.70;7.22;;;7.00;99.90;;;;;;5065801;28;20025;-68
2021/10/31 08:19:42;;;;;;;10.07;7.53;;;7.10;99.90;;;;;;5071961;28;20041;-68
2021/10/31 08:22:08;;;;;;;9.90;7.22;;;7.30;99.90;;;;;;5069204;28;20039;-68
2021/10/31 08:24:34;;;;;;;10.80;7.45;;;7.40;99.90;;;;;;5067433;28;20040;-68
2021/10/31 08:27:00;;;;;;;10.73;7.43;;;7.60;99.90;;;;;;5068065;28;20060;-68
2021/10/31 08:29:26;;;;;;;9.13;7.28;;;7.80;99.90;;;;;;5068317;28;20113;-68
2021/10/31 08:31:55;;;;;;;9.73;7.10;;;7.90;99.90;;;;;;5070002;28;20090;-68
2021/10/31 08:34:20;;;;;;;7.03;6.20;;;8.00;99.90;;;;;;5063868;28;20204;-67
2021/10/31 08:36:46;;;;;;;10.38;6.80;;;8.10;99.90;;;;;;5069715;28;20094;-67
2021/10/31 08:39:12;;;;;;;10.18;6.93;;;8.20;99.90;;;;;;5064886;28;20032;-67
2021/10/31 08:41:38;;;;;;;7.63;6.07;;;8.30;99.90;;;;;;5070471;28;20138;-67
2021/10/31 08:44:05;;;;;;;9.18;6.45;;;8.60;99.90;;;;;;5060489;28;20047;-68
2021/10/31 08:46:32;;;;;;;13.02;7.13;;;8.70;99.90;;;;;;5066770;28;20012;-68
2021/10/31 08:48:58;;;;;;;8.55;6.88;;;8.90;99.90;;;;;;5066291;28;20024;-68
2021/10/31 08:51:25;;;;;;;7.38;5.93;;;9.00;99.90;;;;;;5068126;28;20035;-68
2021/10/31 08:53:55;;;;;;;8.68;6.32;;;9.10;99.90;;;;;;5062161;28;20488;-68
2021/10/31 08:56:22;;;;;;;9.00;6.75;;;9.20;99.90;;;;;;5067622;28;20032;-68
2021/10/31 08:58:49;;;;;;;10.20;6.35;;;9.40;99.90;;;;;;5063318;28;20112;-67
2021/10/31 09:01:16;;;;;;;7.25;6.05;;;9.50;99.90;;;;;;5062628;28;20066;-67
2021/10/31 09:03:42;;;;;;;6.95;6.18;;;9.60;99.90;;;;;;5058999;28;20029;-67
2021/10/31 09:06:11;;;;;;;7.10;5.80;;;9.70;99.90;;;;;;5054242;28;20029;-68
2021/10/31 09:08:39;;;;;;;11.00;6.35;;;9.90;99.90;;;;;;5053858;28;20063;-67
2021/10/31 09:11:05;;;;;;;7.70;6.28;;;10.10;99.90;;;;;;5063944;28;20094;-67
2021/10/31 09:13:30;;;;;;;8.68;6.57;;;10.20;99.90;;;;;;5063544;28;20033;-67
2021/10/31 09:15:56;;;;;;;6.90;6.07;;;10.40;99.90;;;;;;5057029;28;20432;-69
2021/10/31 09:18:23;;;;;;;5.63;4.20;;;10.60;99.90;;;;;;5059373;28;20062;-67
2021/10/31 09:20:49;;;;;;;4.93;4.43;;;10.70;99.90;;;;;;5068691;28;20028;-67
2021/10/31 09:23:15;;;;;;;5.88;3.78;;;10.80;99.90;;;;;;5066482;28;20035;-67
2021/10/31 09:25:40;;;;;;;4.45;3.80;;;10.90;99.90;;;;;;5067071;28;20783;-67
2021/10/31 09:28:06;;;;;;;4.05;3.30;;;11.10;99.90;;;;;;5069824;28;20392;-67
2021/10/31 09:30:36;;;;;;;3.78;2.88;;;11.10;99.90;;;;;;5065570;28;20066;-67
2021/10/31 09:33:01;;;;;;;5.97;3.08;;;11.30;99.90;;;;;;5062797;28;20492;-67
2021/10/31 09:35:29;;;;;;;4.30;2.80;;;11.40;99.90;;;;;;5056030;28;20028;-67
2021/10/31 09:38:03;;;;;;;4.32;3.10;;;11.50;99.90;;;;;;5062284;28;20033;-67
2021/10/31 09:40:31;;;;;;;4.68;3.15;;;11.60;98.90;;;;;;5055695;28;20089;-67
2021/10/31 09:43:00;;;;;;;3.60;2.72;;;11.80;97.40;;;;;;5057153;28;20547;-68
2021/10/31 09:45:25;;;;;;;5.50;3.17;;;11.80;99.00;;;;;;5052847;28;20033;-67
2021/10/31 09:47:56;;;;;;;3.72;3.30;;;12.00;99.50;;;;;;5058432;28;20020;-67
2021/10/31 09:50:26;;;;;;;3.70;3.15;;;12.10;98.80;;;;;;5058461;28;20025;-67
2021/10/31 09:52:52;;;;;;;4.82;3.50;;;12.30;97.20;;;;;;5052628;28;20484;-68
2021/10/31 09:55:18;;;;;;;3.63;3.33;;;12.30;98.30;;;;;;5054272;28;20527;-67
2021/10/31 09:57:45;;;;;;;5.03;3.67;;;12.50;97.20;;;;;;5056232;28;20036;-67
2021/10/31 10:00:11;;;;;;;5.75;3.30;;;12.50;97.90;;;;;;5055794;28;20043;-67
2021/10/31 10:05:25;;;;;;;6.22;3.28;;;12.70;94.70;;;;;;5055792;28;20125;-66
2021/10/31 10:08:17;;;;;;;3.70;3.22;;;12.80;95.00;;;;;;5053519;28;20063;-66
2021/10/31 10:10:51;;;;;;;5.22;3.55;;;12.90;92.10;;;;;;5058008;28;20024;-66
2021/10/31 10:13:27;;;;;;;4.75;3.40;;;12.90;92.30;;;;;;5064521;28;20378;-66
2021/10/31 10:16:21;;;;;;;4.10;3.33;;;12.90;91.50;;;;;;5051302;28;20503;-66
2021/10/31 10:18:49;;;;;;;5.05;3.25;;;13.00;92.20;;;;;;5058046;28;20541;-65
2021/10/31 10:21:26;;;;;;;5.57;3.47;;;13.10;92.60;;;;;;5054894;28;20031;-66
2021/10/31 10:25:03;;;;;;;2.90;2.63;;;13.40;91.50;;;;;;5032585;27;22092;-65
2021/10/31 10:27:35;;;;;;;2.90;2.60;;;13.60;89.60;;;;;;5038093;28;20029;-66
2021/10/31 10:30:12;;;;;;;4.35;2.28;;;13.60;87.30;;;;;;5034971;28;20036;-65
2021/10/31 10:32:50;;;;;;;4.57;3.17;;;13.70;88.20;;;;;;5029541;28;20042;-66
2021/10/31 10:35:18;;;;;;;3.53;2.50;;;13.80;84.60;;;;;;5058648;28;20033;-65
2021/10/31 10:37:43;;;;;;;3.47;3.00;;;13.70;83.10;;;;;;5064693;28;20038;-65
2021/10/31 10:40:17;;;;;;;3.50;2.80;;;13.70;81.00;;;;;;5040885;28;20284;-65
2021/10/31 10:42:52;;;;;;;4.55;2.78;;;13.80;81.30;;;;;;5043420;28;20115;-65
2021/10/31 10:45:45;;;;;;;3.78;2.78;;;13.90;82.30;;;;;;5034794;28;20048;-66
2021/10/31 10:48:15;;;;;;;5.75;3.17;;;14.00;81.10;;;;;;5029603;28;20041;-65
2021/10/31 10:50:42;;;;;;;6.20;2.75;;;14.00;83.20;;;;;;5033878;28;20456;-66
2021/10/31 10:53:23;;;;;;;3.25;2.75;;;14.20;83.20;;;;;;5038049;28;20040;-66
2021/10/31 10:55:50;;;;;;;4.28;3.33;;;14.30;77.00;;;;;;5032198;28;20026;-66
2021/10/31 10:58:18;;;;;;;3.90;2.83;;;14.40;77.20;;;;;;5027334;28;20075;-65
2021/10/31 11:00:49;;;;;;;3.25;2.60;;;14.30;77.40;;;;;;5028401;28;20038;-65
2021/10/31 11:03:20;;;;;;;3.42;3.13;;;14.20;78.30;;;;;;5006486;28;20874;-65
2021/10/31 11:05:51;;;;;;;3.90;2.40;;;14.30;79.10;;;;;;5008170;28;20026;-65
2021/10/31 11:08:20;;;;;;;3.25;2.50;;;14.40;74.60;;;;;;5012410;28;20532;-66
2021/10/31 11:10:54;;;;;;;3.45;2.63;;;14.50;76.50;;;;;;5030387;28;20413;-66
2021/10/31 11:13:20;;;;;;;2.88;2.03;;;14.50;75.20;;;;;;5009568;28;20486;-66
2021/10/31 11:15:47;;;;;;;4.10;2.20;;;14.60;77.90;;;;;;5025617;28;20068;-65
2021/10/31 11:18:13;;;;;;;3.38;2.00;;;14.70;77.20;;;;;;5010898;28;20044;-66
2021/10/31 11:20:42;;;;;;;3.33;2.20;;;14.70;73.10;;;;;;5012603;28;20034;-65
2021/10/31 11:23:11;;;;;;;3.17;2.10;;;14.70;74.30;;;;;;5006890;28;20046;-66
2021/10/31 11:25:39;;;;;;;2.75;2.17;;;14.80;73.20;;;;;;5013409;28;20547;-65
2021/10/31 11:28:09;;;;;;;2.88;1.92;;;14.80;72.90;;;;;;5006927;28;20109;-66
2021/10/31 11:30:36;;;;;;;2.05;1.88;;;14.80;73.00;;;;;;5012631;28;20410;-64
2021/10/31 11:33:04;;;;;;;2.17;1.90;;;15.10;73.60;;;;;;5033609;28;20029;-65
2021/10/31 11:35:32;;;;;;;2.65;1.98;;;15.20;72.90;;;;;;5022355;28;20436;-65
2021/10/31 11:38:02;;;;;;;2.08;1.88;;;15.20;72.20;;;;;;5014163;28;20033;-66
2021/10/31 11:40:35;;;;;;;3.72;2.60;;;15.30;72.30;;;;;;5012984;28;20037;-65
2021/10/31 11:43:03;;;;;;;2.28;1.73;;;15.40;68.90;;;;;;5012613;28;20073;-65
2021/10/31 11:45:37;;;;;;;1.90;1.70;;;15.40;69.70;;;;;;5006623;28;20071;-66
2021/10/31 11:48:12;;;;;;;3.42;2.00;;;15.40;69.60;;;;;;5010589;28;20034;-65
2021/10/31 11:50:41;;;;;;;2.42;1.83;;;15.40;67.80;;;;;;5013138;28;20534;-65
2021/10/31 11:53:18;;;;;;;2.28;1.90;;;15.40;69.80;;;;;;5010689;28;20044;-66
2021/10/31 11:55:46;;;;;;;3.95;2.22;;;15.50;70.20;;;;;;5010962;28;20137;-65
2021/10/31 11:58:30;;;;;;;3.78;2.08;;;15.60;70.90;;;;;;5009738;28;20040;-65
2021/10/31 12:00:58;;;;;;;2.13;1.90;;;15.80;70.30;;;;;;5005754;28;20459;-65
2021/10/31 12:03:33;;;;;;;2.60;2.00;;;15.80;68.70;;;;;;4992463;28;20034;-66
2021/10/31 12:06:15;;;;;;;2.60;1.88;;;15.80;69.20;;;;;;4996946;28;20840;-66
2021/10/31 12:08:54;;;;;;;5.03;2.63;;;15.80;69.30;;;;;;4989597;28;20042;-66
2021/10/31 12:11:40;;;;;;;2.80;2.50;;;15.90;68.70;;;;;;5007116;28;20038;-66
2021/10/31 12:14:08;;;;;;;4.65;2.47;;;15.90;66.00;;;;;;4993038;28;20034;-66
2021/10/31 12:16:53;;;;;;;2.92;2.45;;;15.90;67.10;;;;;;4990500;28;20038;-65
2021/10/31 12:19:34;;;;;;;3.35;1.77;;;15.90;68.80;;;;;;4992632;28;20529;-65
2021/10/31 12:22:15;;;;;;;4.45;2.90;;;16.00;67.70;;;;;;4994372;28;20324;-66
2021/10/31 12:24:45;;;;;;;2.25;2.00;;;16.00;66.20;;;;;;4989785;28;20553;-64
2021/10/31 12:27:17;;;;;;;3.63;2.53;;;15.90;65.70;;;;;;4988215;28;20124;-65
2021/10/31 12:29:51;;;;;;;2.92;2.45;;;15.90;67.20;;;;;;5011120;28;20030;-65
2021/10/31 12:32:18;;;;;;;2.67;2.10;;;15.90;69.10;;;;;;5024720;28;20124;-65
2021/10/31 12:34:50;;;;;;;5.75;3.58;;;15.90;68.80;;;;;;5022184;28;20036;-65
2021/10/31 12:37:19;;;;;;;3.92;2.90;;;16.00;67.80;;;;;;5028190;28;20033;-65
2021/10/31 12:39:47;;;;;;;4.63;2.53;;;16.20;68.70;;;;;;5015967;28;20057;-65
2021/10/31 12:42:50;;;;;;;4.00;2.70;;;16.10;68.50;;;;;;5018990;28;20032;-65
2021/10/31 12:45:16;;;;;;;3.95;2.42;;;16.30;66.80;;;;;;5018856;28;20042;-65
2021/10/31 12:47:52;;;;;;;4.70;2.88;;;16.30;70.50;;;;;;5040101;28;20035;-65
2021/10/31 12:50:21;;;;;;;3.42;2.53;;;16.30;65.20;;;;;;5031384;28;20021;-65
2021/10/31 12:52:54;;;;;;;3.75;2.80;;;16.20;67.70;;;;;;5034748;28;20497;-65
2021/10/31 12:55:22;;;;;;;2.90;2.70;;;16.20;69.20;;;;;;5025080;28;20025;-65
2021/10/31 12:57:57;;;;;;;;;;;16.20;67.50;;;;;;5020189;28;20060;-66
2021/10/31 13:00:25;;;;;;;3.65;2.85;;;16.20;67.30;;;;;;5012084;28;19917;-64
2021/10/31 13:02:52;;;;;;;;;;;16.20;65.30;;;;;;4994234;28;20651;-65
2021/10/31 13:05:31;;;;;;;4.18;2.53;;;16.20;68.10;;;;;;4991506;28;20395;-65